HTSU

Sumbawanga Airport

Airport
ICAO code
HTSU
IATA Code
SUT
Summary
ICAO Region
AFI
ICAO Territory
Location

Sumbawanga, Rukwa Region

Serving
Sumbawanga
Elevation
5920 ft
Coordinates
7° 56' 56" S , 31° 36' 37" E
KCC
Metar
Observation
HTSU 071900Z 00000KT 9999 FEW020 19/M03 Q1023
Station
SUMBAWANGA
Date/Time
2022-10-07 19:00:00
Wind direction
Wind speed
00 kts
Lowest cloud amount
few clouds
Temperature
19°C
Dew point
-3°C
Humidity
22%
QNH
1023 hPa
Weather condition
n/a

Sumbawanga Airport is an airport in western Tanzania serving the town of Sumbawanga in Rukwa Region.

Climatology

Subtropical highland climate (Köppen climate classification Cwb)

Airport map

Aerial View

SKYbrary Partners:

Safety knowledge contributed by: